sensor_id;sensor_type;location;lat;lon;timestamp;P1;durP1;ratioP1;P2;durP2;ratioP2
11681;SDS011;5897;42.640;23.310;2022-10-16T00:01:07;6.60;;;5.80;;
11681;SDS011;5897;42.640;23.310;2022-10-16T00:03:36;6.30;;;5.63;;
11681;SDS011;5897;42.640;23.310;2022-10-16T00:06:03;7.50;;;5.75;;
11681;SDS011;5897;42.640;23.310;2022-10-16T00:08:31;6.95;;;5.85;;
11681;SDS011;5897;42.640;23.310;2022-10-16T00:11:00;9.40;;;7.22;;
11681;SDS011;5897;42.640;23.310;2022-10-16T00:13:28;11.40;;;8.32;;
11681;SDS011;5897;42.640;23.310;2022-10-16T00:15:55;11.50;;;8.70;;
11681;SDS011;5897;42.640;23.310;2022-10-16T00:18:23;12.38;;;8.15;;
11681;SDS011;5897;42.640;23.310;2022-10-16T00:20:50;13.35;;;9.55;;
11681;SDS011;5897;42.640;23.310;2022-10-16T00:23:17;15.15;;;9.95;;
11681;SDS011;5897;42.640;23.310;2022-10-16T00:25:44;14.10;;;9.73;;
11681;SDS011;5897;42.640;23.310;2022-10-16T00:28:12;14.90;;;9.30;;
11681;SDS011;5897;42.640;23.310;2022-10-16T00:30:39;16.10;;;9.77;;
11681;SDS011;5897;42.640;23.310;2022-10-16T00:33:06;12.15;;;8.68;;
11681;SDS011;5897;42.640;23.310;2022-10-16T00:35:33;11.93;;;7.97;;
11681;SDS011;5897;42.640;23.310;2022-10-16T00:38:00;10.32;;;7.85;;
11681;SDS011;5897;42.640;23.310;2022-10-16T00:40:26;12.40;;;7.82;;
11681;SDS011;5897;42.640;23.310;2022-10-16T00:42:54;9.60;;;7.35;;
11681;SDS011;5897;42.640;23.310;2022-10-16T00:45:22;9.10;;;7.25;;
11681;SDS011;5897;42.640;23.310;2022-10-16T00:47:49;8.48;;;7.57;;
11681;SDS011;5897;42.640;23.310;2022-10-16T00:50:20;10.40;;;6.68;;
11681;SDS011;5897;42.640;23.310;2022-10-16T00:52:50;9.82;;;7.50;;
11681;SDS011;5897;42.640;23.310;2022-10-16T00:55:18;8.23;;;7.30;;
11681;SDS011;5897;42.640;23.310;2022-10-16T00:57:45;7.47;;;6.50;;
11681;SDS011;5897;42.640;23.310;2022-10-16T01:00:15;9.05;;;6.00;;
11681;SDS011;5897;42.640;23.310;2022-10-16T01:02:51;6.57;;;5.88;;
11681;SDS011;5897;42.640;23.310;2022-10-16T01:05:18;9.55;;;7.05;;
11681;SDS011;5897;42.640;23.310;2022-10-16T01:07:48;7.47;;;5.93;;
11681;SDS011;5897;42.640;23.310;2022-10-16T01:10:27;9.45;;;5.65;;
11681;SDS011;5897;42.640;23.310;2022-10-16T01:13:02;5.45;;;4.88;;
11681;SDS011;5897;42.640;23.310;2022-10-16T01:15:32;5.65;;;4.50;;
11681;SDS011;5897;42.640;23.310;2022-10-16T01:18:05;5.45;;;4.90;;
11681;SDS011;5897;42.640;23.310;2022-10-16T01:20:39;7.45;;;4.97;;
11681;SDS011;5897;42.640;23.310;2022-10-16T01:23:15;7.95;;;4.97;;
11681;SDS011;5897;42.640;23.310;2022-10-16T01:25:59;21.52;;;17.23;;
11681;SDS011;5897;42.640;23.310;2022-10-16T01:28:47;13.20;;;9.32;;
11681;SDS011;5897;42.640;23.310;2022-10-16T01:31:19;7.72;;;5.57;;
11681;SDS011;5897;42.640;23.310;2022-10-16T01:33:51;8.07;;;5.78;;
11681;SDS011;5897;42.640;23.310;2022-10-16T01:36:26;5.53;;;5.03;;
11681;SDS011;5897;42.640;23.310;2022-10-16T01:38:59;6.05;;;5.50;;
11681;SDS011;5897;42.640;23.310;2022-10-16T01:41:30;8.68;;;5.63;;
11681;SDS011;5897;42.640;23.310;2022-10-16T01:44:01;5.97;;;5.47;;
11681;SDS011;5897;42.640;23.310;2022-10-16T01:46:32;6.57;;;5.88;;
11681;SDS011;5897;42.640;23.310;2022-10-16T01:49:00;8.05;;;6.05;;
11681;SDS011;5897;42.640;23.310;2022-10-16T01:51:29;7.10;;;6.22;;
11681;SDS011;5897;42.640;23.310;2022-10-16T01:53:57;6.75;;;6.05;;
11681;SDS011;5897;42.640;23.310;2022-10-16T01:56:26;6.68;;;5.57;;
11681;SDS011;5897;42.640;23.310;2022-10-16T01:58:55;7.40;;;5.05;;
11681;SDS011;5897;42.640;23.310;2022-10-16T02:01:28;6.72;;;5.30;;
11681;SDS011;5897;42.640;23.310;2022-10-16T02:03:58;7.13;;;5.60;;
11681;SDS011;5897;42.640;23.310;2022-10-16T02:06:29;6.88;;;5.80;;
11681;SDS011;5897;42.640;23.310;2022-10-16T02:08:56;6.95;;;6.30;;
11681;SDS011;5897;42.640;23.310;2022-10-16T02:11:23;8.88;;;6.15;;
11681;SDS011;5897;42.640;23.310;2022-10-16T02:13:51;7.25;;;6.15;;
11681;SDS011;5897;42.640;23.310;2022-10-16T02:16:23;6.80;;;6.07;;
11681;SDS011;5897;42.640;23.310;2022-10-16T02:18:58;8.90;;;6.82;;
11681;SDS011;5897;42.640;23.310;2022-10-16T02:21:26;6.63;;;5.93;;
11681;SDS011;5897;42.640;23.310;2022-10-16T02:23:57;7.25;;;6.35;;
11681;SDS011;5897;42.640;23.310;2022-10-16T02:26:30;7.90;;;6.60;;
11681;SDS011;5897;42.640;23.310;2022-10-16T02:29:04;9.55;;;6.78;;
11681;SDS011;5897;42.640;23.310;2022-10-16T02:31:38;8.95;;;6.57;;
11681;SDS011;5897;42.640;23.310;2022-10-16T02:34:08;7.90;;;6.50;;
11681;SDS011;5897;42.640;23.310;2022-10-16T02:36:37;8.15;;;6.65;;
11681;SDS011;5897;42.640;23.310;2022-10-16T02:39:06;9.32;;;7.32;;
11681;SDS011;5897;42.640;23.310;2022-10-16T02:41:34;10.38;;;7.05;;
11681;SDS011;5897;42.640;23.310;2022-10-16T02:44:01;8.45;;;7.05;;
11681;SDS011;5897;42.640;23.310;2022-10-16T02:46:27;8.45;;;7.28;;
11681;SDS011;5897;42.640;23.310;2022-10-16T02:48:55;10.07;;;6.68;;
11681;SDS011;5897;42.640;23.310;2022-10-16T02:51:22;11.25;;;7.78;;
11681;SDS011;5897;42.640;23.310;2022-10-16T02:53:49;8.25;;;7.32;;
11681;SDS011;5897;42.640;23.310;2022-10-16T02:56:16;8.70;;;7.47;;
11681;SDS011;5897;42.640;23.310;2022-10-16T02:58:42;13.20;;;9.27;;
11681;SDS011;5897;42.640;23.310;2022-10-16T03:01:09;10.60;;;8.82;;
11681;SDS011;5897;42.640;23.310;2022-10-16T03:03:37;10.95;;;9.23;;
11681;SDS011;5897;42.640;23.310;2022-10-16T03:06:06;11.32;;;9.80;;
11681;SDS011;5897;42.640;23.310;2022-10-16T03:08:32;13.85;;;9.57;;
11681;SDS011;5897;42.640;23.310;2022-10-16T03:10:59;9.98;;;8.98;;
11681;SDS011;5897;42.640;23.310;2022-10-16T03:13:26;11.98;;;9.45;;
11681;SDS011;5897;42.640;23.310;2022-10-16T03:15:52;12.93;;;10.32;;
11681;SDS011;5897;42.640;23.310;2022-10-16T03:18:19;12.63;;;9.88;;
11681;SDS011;5897;42.640;23.310;2022-10-16T03:20:46;13.45;;;10.23;;
11681;SDS011;5897;42.640;23.310;2022-10-16T03:23:14;12.40;;;9.70;;
11681;SDS011;5897;42.640;23.310;2022-10-16T03:25:41;11.52;;;10.00;;
11681;SDS011;5897;42.640;23.310;2022-10-16T03:28:07;10.90;;;9.65;;
11681;SDS011;5897;42.640;23.310;2022-10-16T03:30:34;12.27;;;10.70;;
11681;SDS011;5897;42.640;23.310;2022-10-16T03:33:01;11.95;;;10.65;;
11681;SDS011;5897;42.640;23.310;2022-10-16T03:35:28;12.43;;;10.20;;
11681;SDS011;5897;42.640;23.310;2022-10-16T03:37:54;13.32;;;10.65;;
11681;SDS011;5897;42.640;23.310;2022-10-16T03:40:23;14.15;;;10.95;;
11681;SDS011;5897;42.640;23.310;2022-10-16T03:42:49;15.25;;;10.73;;
11681;SDS011;5897;42.640;23.310;2022-10-16T03:45:16;14.40;;;10.98;;
11681;SDS011;5897;42.640;23.310;2022-10-16T03:47:43;15.85;;;11.70;;
11681;SDS011;5897;42.640;23.310;2022-10-16T03:50:10;13.77;;;12.00;;
11681;SDS011;5897;42.640;23.310;2022-10-16T03:52:37;17.95;;;12.15;;
11681;SDS011;5897;42.640;23.310;2022-10-16T03:55:04;13.52;;;10.75;;
11681;SDS011;5897;42.640;23.310;2022-10-16T03:57:32;16.55;;;11.60;;
11681;SDS011;5897;42.640;23.310;2022-10-16T03:59:59;12.50;;;11.20;;
11681;SDS011;5897;42.640;23.310;2022-10-16T04:02:26;13.27;;;10.95;;
11681;SDS011;5897;42.640;23.310;2022-10-16T04:04:52;11.70;;;10.45;;
11681;SDS011;5897;42.640;23.310;2022-10-16T04:07:19;15.35;;;10.93;;
11681;SDS011;5897;42.640;23.310;2022-10-16T04:09:46;13.93;;;11.73;;
11681;SDS011;5897;42.640;23.310;2022-10-16T04:12:13;13.68;;;11.93;;
11681;SDS011;5897;42.640;23.310;2022-10-16T04:14:41;15.98;;;12.20;;
11681;SDS011;5897;42.640;23.310;2022-10-16T04:17:08;19.45;;;14.05;;
11681;SDS011;5897;42.640;23.310;2022-10-16T04:19:34;20.95;;;14.88;;
11681;SDS011;5897;42.640;23.310;2022-10-16T04:22:02;19.67;;;14.77;;
11681;SDS011;5897;42.640;23.310;2022-10-16T04:24:29;20.38;;;15.18;;
11681;SDS011;5897;42.640;23.310;2022-10-16T04:26:56;20.42;;;15.05;;
11681;SDS011;5897;42.640;23.310;2022-10-16T04:29:22;17.98;;;13.80;;
11681;SDS011;5897;42.640;23.310;2022-10-16T04:31:51;18.60;;;14.60;;
11681;SDS011;5897;42.640;23.310;2022-10-16T04:34:17;20.65;;;14.82;;
11681;SDS011;5897;42.640;23.310;2022-10-16T04:36:46;17.38;;;14.63;;
11681;SDS011;5897;42.640;23.310;2022-10-16T04:39:13;17.42;;;14.50;;
11681;SDS011;5897;42.640;23.310;2022-10-16T04:41:40;19.15;;;14.65;;
11681;SDS011;5897;42.640;23.310;2022-10-16T04:44:07;17.88;;;14.15;;
11681;SDS011;5897;42.640;23.310;2022-10-16T04:46:33;17.88;;;14.80;;
11681;SDS011;5897;42.640;23.310;2022-10-16T04:49:01;16.67;;;13.70;;
11681;SDS011;5897;42.640;23.310;2022-10-16T04:51:28;14.05;;;11.95;;
11681;SDS011;5897;42.640;23.310;2022-10-16T04:53:55;15.63;;;11.77;;
11681;SDS011;5897;42.640;23.310;2022-10-16T04:56:22;12.90;;;10.52;;
11681;SDS011;5897;42.640;23.310;2022-10-16T04:58:49;16.02;;;11.95;;
11681;SDS011;5897;42.640;23.310;2022-10-16T05:01:16;14.63;;;12.65;;
11681;SDS011;5897;42.640;23.310;2022-10-16T05:03:42;14.77;;;13.18;;
11681;SDS011;5897;42.640;23.310;2022-10-16T05:06:11;17.15;;;12.98;;
11681;SDS011;5897;42.640;23.310;2022-10-16T05:08:37;16.05;;;13.02;;
11681;SDS011;5897;42.640;23.310;2022-10-16T05:11:04;14.35;;;11.63;;
11681;SDS011;5897;42.640;23.310;2022-10-16T05:13:31;16.63;;;11.57;;
11681;SDS011;5897;42.640;23.310;2022-10-16T05:15:57;15.45;;;12.45;;
11681;SDS011;5897;42.640;23.310;2022-10-16T05:18:24;15.43;;;11.98;;
11681;SDS011;5897;42.640;23.310;2022-10-16T05:20:51;15.60;;;11.93;;
11681;SDS011;5897;42.640;23.310;2022-10-16T05:23:19;13.68;;;11.70;;
11681;SDS011;5897;42.640;23.310;2022-10-16T05:25:51;12.27;;;10.82;;
11681;SDS011;5897;42.640;23.310;2022-10-16T05:28:19;12.65;;;10.77;;
11681;SDS011;5897;42.640;23.310;2022-10-16T05:30:46;14.05;;;11.35;;
11681;SDS011;5897;42.640;23.310;2022-10-16T05:33:13;16.70;;;10.80;;
11681;SDS011;5897;42.640;23.310;2022-10-16T05:35:39;13.57;;;11.10;;
11681;SDS011;5897;42.640;23.310;2022-10-16T05:38:06;15.57;;;10.93;;
11681;SDS011;5897;42.640;23.310;2022-10-16T05:40:34;12.07;;;10.52;;
11681;SDS011;5897;42.640;23.310;2022-10-16T05:43:01;12.05;;;10.73;;
11681;SDS011;5897;42.640;23.310;2022-10-16T05:45:28;12.30;;;10.38;;
11681;SDS011;5897;42.640;23.310;2022-10-16T05:47:55;13.63;;;10.95;;
11681;SDS011;5897;42.640;23.310;2022-10-16T05:50:21;14.05;;;10.65;;
11681;SDS011;5897;42.640;23.310;2022-10-16T05:52:48;11.10;;;9.88;;
11681;SDS011;5897;42.640;23.310;2022-10-16T05:55:15;11.52;;;10.32;;
11681;SDS011;5897;42.640;23.310;2022-10-16T05:57:43;13.15;;;10.27;;
11681;SDS011;5897;42.640;23.310;2022-10-16T06:00:10;13.15;;;10.40;;
11681;SDS011;5897;42.640;23.310;2022-10-16T06:02:37;13.32;;;10.27;;
11681;SDS011;5897;42.640;23.310;2022-10-16T06:05:04;12.80;;;10.90;;
11681;SDS011;5897;42.640;23.310;2022-10-16T06:07:33;13.70;;;9.85;;
11681;SDS011;5897;42.640;23.310;2022-10-16T06:10:01;11.20;;;9.93;;
11681;SDS011;5897;42.640;23.310;2022-10-16T06:12:29;13.15;;;10.18;;
11681;SDS011;5897;42.640;23.310;2022-10-16T06:14:57;13.23;;;10.63;;
11681;SDS011;5897;42.640;23.310;2022-10-16T06:17:23;12.02;;;10.07;;
11681;SDS011;5897;42.640;23.310;2022-10-16T06:19:50;12.73;;;10.18;;
11681;SDS011;5897;42.640;23.310;2022-10-16T06:22:17;13.77;;;10.43;;
11681;SDS011;5897;42.640;23.310;2022-10-16T06:24:43;14.20;;;10.10;;
11681;SDS011;5897;42.640;23.310;2022-10-16T06:27:11;13.25;;;9.93;;
11681;SDS011;5897;42.640;23.310;2022-10-16T06:29:38;12.15;;;10.57;;
11681;SDS011;5897;42.640;23.310;2022-10-16T06:32:06;15.10;;;11.07;;
11681;SDS011;5897;42.640;23.310;2022-10-16T06:34:33;16.52;;;11.20;;
11681;SDS011;5897;42.640;23.310;2022-10-16T06:36:59;26.05;;;21.27;;
11681;SDS011;5897;42.640;23.310;2022-10-16T06:39:26;22.00;;;15.95;;
11681;SDS011;5897;42.640;23.310;2022-10-16T06:41:53;63.00;;;46.10;;
11681;SDS011;5897;42.640;23.310;2022-10-16T06:44:19;13.95;;;10.07;;
11681;SDS011;5897;42.640;23.310;2022-10-16T06:46:46;13.13;;;10.75;;
11681;SDS011;5897;42.640;23.310;2022-10-16T06:49:14;14.35;;;11.18;;
11681;SDS011;5897;42.640;23.310;2022-10-16T06:51:46;11.10;;;9.65;;
11681;SDS011;5897;42.640;23.310;2022-10-16T06:54:14;10.02;;;8.45;;
11681;SDS011;5897;42.640;23.310;2022-10-16T06:56:42;13.07;;;8.98;;
11681;SDS011;5897;42.640;23.310;2022-10-16T06:59:09;10.80;;;8.52;;
11681;SDS011;5897;42.640;23.310;2022-10-16T07:01:36;7.50;;;6.60;;
11681;SDS011;5897;42.640;23.310;2022-10-16T07:04:03;7.50;;;6.70;;
11681;SDS011;5897;42.640;23.310;2022-10-16T07:06:32;8.32;;;5.68;;
11681;SDS011;5897;42.640;23.310;2022-10-16T07:09:01;8.35;;;5.40;;
11681;SDS011;5897;42.640;23.310;2022-10-16T07:11:29;8.20;;;6.03;;
11681;SDS011;5897;42.640;23.310;2022-10-16T07:13:56;8.45;;;6.30;;
11681;SDS011;5897;42.640;23.310;2022-10-16T07:16:23;8.27;;;6.10;;
11681;SDS011;5897;42.640;23.310;2022-10-16T07:18:52;7.30;;;6.55;;
11681;SDS011;5897;42.640;23.310;2022-10-16T07:21:23;30.55;;;24.38;;
11681;SDS011;5897;42.640;23.310;2022-10-16T07:23:53;20.17;;;18.17;;
11681;SDS011;5897;42.640;23.310;2022-10-16T07:26:21;6.97;;;5.10;;
11681;SDS011;5897;42.640;23.310;2022-10-16T07:28:49;5.90;;;5.05;;
11681;SDS011;5897;42.640;23.310;2022-10-16T07:31:17;6.65;;;5.20;;
11681;SDS011;5897;42.640;23.310;2022-10-16T07:33:45;5.53;;;4.93;;
11681;SDS011;5897;42.640;23.310;2022-10-16T07:36:13;7.18;;;4.90;;
11681;SDS011;5897;42.640;23.310;2022-10-16T07:38:41;7.18;;;4.88;;
11681;SDS011;5897;42.640;23.310;2022-10-16T07:41:10;6.60;;;5.10;;
11681;SDS011;5897;42.640;23.310;2022-10-16T07:43:38;6.22;;;4.47;;
11681;SDS011;5897;42.640;23.310;2022-10-16T07:46:06;8.80;;;5.32;;
11681;SDS011;5897;42.640;23.310;2022-10-16T07:48:33;7.03;;;4.93;;
11681;SDS011;5897;42.640;23.310;2022-10-16T07:51:01;6.10;;;4.60;;
11681;SDS011;5897;42.640;23.310;2022-10-16T07:53:30;7.57;;;5.78;;
11681;SDS011;5897;42.640;23.310;2022-10-16T07:55:57;6.13;;;5.53;;
11681;SDS011;5897;42.640;23.310;2022-10-16T07:58:26;6.20;;;5.20;;
11681;SDS011;5897;42.640;23.310;2022-10-16T08:00:53;9.00;;;6.10;;
11681;SDS011;5897;42.640;23.310;2022-10-16T08:03:20;7.43;;;5.97;;
11681;SDS011;5897;42.640;23.310;2022-10-16T08:05:47;7.32;;;5.85;;
11681;SDS011;5897;42.640;23.310;2022-10-16T08:08:14;8.43;;;6.38;;
11681;SDS011;5897;42.640;23.310;2022-10-16T08:10:42;8.18;;;5.80;;
11681;SDS011;5897;42.640;23.310;2022-10-16T08:13:09;12.68;;;6.00;;
11681;SDS011;5897;42.640;23.310;2022-10-16T08:15:37;11.07;;;6.50;;
11681;SDS011;5897;42.640;23.310;2022-10-16T08:18:05;11.15;;;5.75;;
11681;SDS011;5897;42.640;23.310;2022-10-16T08:20:32;7.10;;;5.90;;
11681;SDS011;5897;42.640;23.310;2022-10-16T08:22:59;8.05;;;6.20;;
11681;SDS011;5897;42.640;23.310;2022-10-16T08:25:27;9.95;;;6.35;;
11681;SDS011;5897;42.640;23.310;2022-10-16T08:27:54;9.50;;;6.10;;
11681;SDS011;5897;42.640;23.310;2022-10-16T08:30:22;8.70;;;5.45;;
11681;SDS011;5897;42.640;23.310;2022-10-16T08:32:51;7.35;;;5.60;;
11681;SDS011;5897;42.640;23.310;2022-10-16T08:35:18;7.00;;;5.55;;
11681;SDS011;5897;42.640;23.310;2022-10-16T08:37:45;10.40;;;6.72;;
11681;SDS011;5897;42.640;23.310;2022-10-16T08:40:15;9.63;;;6.32;;
11681;SDS011;5897;42.640;23.310;2022-10-16T08:42:58;9.05;;;5.35;;
11681;SDS011;5897;42.640;23.310;2022-10-16T08:45:48;7.10;;;6.10;;
11681;SDS011;5897;42.640;23.310;2022-10-16T08:48:30;7.70;;;5.22;;
11681;SDS011;5897;42.640;23.310;2022-10-16T08:51:03;7.65;;;5.07;;
11681;SDS011;5897;42.640;23.310;2022-10-16T08:53:31;8.13;;;5.00;;
11681;SDS011;5897;42.640;23.310;2022-10-16T08:56:05;7.25;;;4.72;;
11681;SDS011;5897;42.640;23.310;2022-10-16T08:58:32;7.43;;;4.40;;
11681;SDS011;5897;42.640;23.310;2022-10-16T09:01:00;7.97;;;4.68;;
11681;SDS011;5897;42.640;23.310;2022-10-16T09:03:36;4.35;;;3.53;;
11681;SDS011;5897;42.640;23.310;2022-10-16T09:06:21;4.18;;;3.40;;
11681;SDS011;5897;42.640;23.310;2022-10-16T09:09:00;4.45;;;3.25;;
11681;SDS011;5897;42.640;23.310;2022-10-16T09:11:41;5.20;;;3.40;;
11681;SDS011;5897;42.640;23.310;2022-10-16T09:14:22;3.90;;;3.28;;
11681;SDS011;5897;42.640;23.310;2022-10-16T09:17:06;3.65;;;3.30;;
11681;SDS011;5897;42.640;23.310;2022-10-16T09:19:53;4.97;;;3.90;;
11681;SDS011;5897;42.640;23.310;2022-10-16T09:22:27;4.35;;;3.47;;
11681;SDS011;5897;42.640;23.310;2022-10-16T09:24:55;4.90;;;3.47;;
11681;SDS011;5897;42.640;23.310;2022-10-16T09:27:26;4.75;;;3.72;;
11681;SDS011;5897;42.640;23.310;2022-10-16T09:29:53;4.00;;;3.08;;
11681;SDS011;5897;42.640;23.310;2022-10-16T09:32:20;5.35;;;3.10;;
11681;SDS011;5897;42.640;23.310;2022-10-16T09:34:49;3.55;;;3.00;;
11681;SDS011;5897;42.640;23.310;2022-10-16T09:37:21;5.35;;;3.40;;
11681;SDS011;5897;42.640;23.310;2022-10-16T09:39:51;3.65;;;2.75;;
11681;SDS011;5897;42.640;23.310;2022-10-16T09:42:18;3.42;;;3.13;;
11681;SDS011;5897;42.640;23.310;2022-10-16T09:44:47;4.75;;;3.35;;
11681;SDS011;5897;42.640;23.310;2022-10-16T09:47:17;5.65;;;4.20;;
11681;SDS011;5897;42.640;23.310;2022-10-16T09:49:54;6.90;;;3.70;;
11681;SDS011;5897;42.640;23.310;2022-10-16T09:52:23;4.03;;;2.97;;
11681;SDS011;5897;42.640;23.310;2022-10-16T09:54:50;4.07;;;3.05;;
11681;SDS011;5897;42.640;23.310;2022-10-16T09:57:18;4.10;;;2.80;;
11681;SDS011;5897;42.640;23.310;2022-10-16T09:59:46;3.75;;;2.92;;
11681;SDS011;5897;42.640;23.310;2022-10-16T10:02:15;4.10;;;3.03;;
11681;SDS011;5897;42.640;23.310;2022-10-16T10:04:45;3.80;;;3.40;;
11681;SDS011;5897;42.640;23.310;2022-10-16T10:07:18;4.32;;;2.78;;
11681;SDS011;5897;42.640;23.310;2022-10-16T10:09:49;4.03;;;3.05;;
11681;SDS011;5897;42.640;23.310;2022-10-16T10:12:17;3.75;;;2.92;;
11681;SDS011;5897;42.640;23.310;2022-10-16T10:14:46;6.05;;;2.80;;
11681;SDS011;5897;42.640;23.310;2022-10-16T10:17:18;7.18;;;3.00;;
11681;SDS011;5897;42.640;23.310;2022-10-16T10:19:47;5.47;;;3.40;;
11681;SDS011;5897;42.640;23.310;2022-10-16T10:22:23;3.97;;;3.25;;
11681;SDS011;5897;42.640;23.310;2022-10-16T10:25:07;3.30;;;2.70;;
11681;SDS011;5897;42.640;23.310;2022-10-16T10:27:45;4.25;;;2.75;;
11681;SDS011;5897;42.640;23.310;2022-10-16T10:30:19;3.38;;;2.75;;
11681;SDS011;5897;42.640;23.310;2022-10-16T10:32:51;4.25;;;2.72;;
11681;SDS011;5897;42.640;23.310;2022-10-16T10:35:30;3.25;;;2.53;;
11681;SDS011;5897;42.640;23.310;2022-10-16T10:38:13;3.92;;;2.85;;
11681;SDS011;5897;42.640;23.310;2022-10-16T10:40:50;3.20;;;2.80;;
11681;SDS011;5897;42.640;23.310;2022-10-16T10:43:26;4.47;;;2.75;;
11681;SDS011;5897;42.640;23.310;2022-10-16T10:46:04;2.80;;;2.55;;
11681;SDS011;5897;42.640;23.310;2022-10-16T10:48:44;3.70;;;2.50;;
11681;SDS011;5897;42.640;23.310;2022-10-16T10:51:21;3.15;;;2.78;;
11681;SDS011;5897;42.640;23.310;2022-10-16T10:54:00;3.67;;;2.92;;
11681;SDS011;5897;42.640;23.310;2022-10-16T10:56:41;3.83;;;2.90;;
11681;SDS011;5897;42.640;23.310;2022-10-16T10:59:17;3.60;;;3.00;;
11681;SDS011;5897;42.640;23.310;2022-10-16T11:01:58;4.45;;;2.95;;
11681;SDS011;5897;42.640;23.310;2022-10-16T11:07:33;3.35;;;2.30;;
11681;SDS011;5897;42.640;23.310;2022-10-16T11:10:11;3.05;;;2.42;;
11681;SDS011;5897;42.640;23.310;2022-10-16T11:12:42;2.80;;;2.55;;
11681;SDS011;5897;42.640;23.310;2022-10-16T11:15:14;3.78;;;2.65;;
11681;SDS011;5897;42.640;23.310;2022-10-16T11:17:45;3.85;;;2.72;;
11681;SDS011;5897;42.640;23.310;2022-10-16T11:20:16;4.18;;;2.53;;
11681;SDS011;5897;42.640;23.310;2022-10-16T11:22:47;3.28;;;2.00;;
11681;SDS011;5897;42.640;23.310;2022-10-16T11:25:21;2.45;;;2.17;;
11681;SDS011;5897;42.640;23.310;2022-10-16T11:27:54;3.55;;;2.38;;
11681;SDS011;5897;42.640;23.310;2022-10-16T11:30:28;4.22;;;2.10;;
11681;SDS011;5897;42.640;23.310;2022-10-16T11:33:00;3.30;;;1.83;;
11681;SDS011;5897;42.640;23.310;2022-10-16T11:35:38;2.20;;;2.00;;
11681;SDS011;5897;42.640;23.310;2022-10-16T11:38:12;2.20;;;1.77;;
11681;SDS011;5897;42.640;23.310;2022-10-16T11:40:47;4.03;;;2.20;;
11681;SDS011;5897;42.640;23.310;2022-10-16T11:43:17;3.13;;;2.03;;
11681;SDS011;5897;42.640;23.310;2022-10-16T11:45:51;2.50;;;1.75;;
11681;SDS011;5897;42.640;23.310;2022-10-16T11:48:23;1.75;;;1.65;;
11681;SDS011;5897;42.640;23.310;2022-10-16T11:50:54;2.97;;;1.65;;
11681;SDS011;5897;42.640;23.310;2022-10-16T11:53:28;2.72;;;2.00;;
11681;SDS011;5897;42.640;23.310;2022-10-16T11:56:06;2.33;;;1.90;;
11681;SDS011;5897;42.640;23.310;2022-10-16T11:58:34;2.30;;;1.85;;
11681;SDS011;5897;42.640;23.310;2022-10-16T12:01:12;2.08;;;1.88;;
11681;SDS011;5897;42.640;23.310;2022-10-16T12:03:46;3.00;;;1.90;;
11681;SDS011;5897;42.640;23.310;2022-10-16T12:06:25;3.83;;;1.67;;
11681;SDS011;5897;42.640;23.310;2022-10-16T12:08:58;1.70;;;1.60;;
11681;SDS011;5897;42.640;23.310;2022-10-16T12:11:35;2.08;;;1.90;;
11681;SDS011;5897;42.640;23.310;2022-10-16T12:14:07;2.33;;;1.50;;
11681;SDS011;5897;42.640;23.310;2022-10-16T12:16:52;1.95;;;1.73;;
11681;SDS011;5897;42.640;23.310;2022-10-16T12:19:21;2.10;;;1.90;;
11681;SDS011;5897;42.640;23.310;2022-10-16T12:21:49;3.15;;;2.03;;
11681;SDS011;5897;42.640;23.310;2022-10-16T12:24:21;5.60;;;2.20;;
11681;SDS011;5897;42.640;23.310;2022-10-16T12:26:55;2.45;;;1.98;;
11681;SDS011;5897;42.640;23.310;2022-10-16T12:29:23;3.58;;;2.05;;
11681;SDS011;5897;42.640;23.310;2022-10-16T12:31:58;2.28;;;1.88;;
11681;SDS011;5897;42.640;23.310;2022-10-16T12:34:27;3.67;;;1.90;;
11681;SDS011;5897;42.640;23.310;2022-10-16T12:36:55;4.32;;;2.20;;
11681;SDS011;5897;42.640;23.310;2022-10-16T12:39:35;2.42;;;2.20;;
11681;SDS011;5897;42.640;23.310;2022-10-16T12:42:05;2.05;;;1.85;;
11681;SDS011;5897;42.640;23.310;2022-10-16T12:44:46;1.77;;;1.55;;
11681;SDS011;5897;42.640;23.310;2022-10-16T12:47:19;1.60;;;1.50;;
11681;SDS011;5897;42.640;23.310;2022-10-16T12:49:48;2.15;;;1.73;;
11681;SDS011;5897;42.640;23.310;2022-10-16T12:55:03;1.90;;;1.70;;
11681;SDS011;5897;42.640;23.310;2022-10-16T12:57:37;2.42;;;1.70;;
11681;SDS011;5897;42.640;23.310;2022-10-16T13:00:19;2.10;;;1.90;;
11681;SDS011;5897;42.640;23.310;2022-10-16T13:05:56;1.67;;;1.58;;
11681;SDS011;5897;42.640;23.310;2022-10-16T13:08:36;3.70;;;1.77;;
11681;SDS011;5897;42.640;23.310;2022-10-16T13:11:17;2.50;;;1.80;;
11681;SDS011;5897;42.640;23.310;2022-10-16T13:13:56;3.25;;;1.85;;
11681;SDS011;5897;42.640;23.310;2022-10-16T13:16:34;2.28;;;2.08;;
11681;SDS011;5897;42.640;23.310;2022-10-16T13:19:16;2.95;;;1.80;;
11681;SDS011;5897;42.640;23.310;2022-10-16T13:21:51;1.92;;;1.83;;
11681;SDS011;5897;42.640;23.310;2022-10-16T13:24:36;2.63;;;2.17;;
11681;SDS011;5897;42.640;23.310;2022-10-16T13:27:15;3.25;;;2.35;;
11681;SDS011;5897;42.640;23.310;2022-10-16T13:29:54;4.00;;;2.20;;
11681;SDS011;5897;42.640;23.310;2022-10-16T13:32:27;4.00;;;1.80;;
11681;SDS011;5897;42.640;23.310;2022-10-16T13:34:55;2.47;;;1.90;;
11681;SDS011;5897;42.640;23.310;2022-10-16T13:37:22;2.22;;;1.90;;
11681;SDS011;5897;42.640;23.310;2022-10-16T13:39:50;7.68;;;4.97;;
11681;SDS011;5897;42.640;23.310;2022-10-16T13:42:20;7.55;;;4.25;;
11681;SDS011;5897;42.640;23.310;2022-10-16T13:44:50;7.38;;;4.90;;
11681;SDS011;5897;42.640;23.310;2022-10-16T13:47:20;6.38;;;2.70;;
11681;SDS011;5897;42.640;23.310;2022-10-16T13:49:58;2.90;;;2.15;;
11681;SDS011;5897;42.640;23.310;2022-10-16T13:52:26;3.33;;;2.47;;
11681;SDS011;5897;42.640;23.310;2022-10-16T13:54:55;1.80;;;1.70;;
11681;SDS011;5897;42.640;23.310;2022-10-16T13:57:23;3.50;;;2.30;;
11681;SDS011;5897;42.640;23.310;2022-10-16T13:59:50;5.00;;;2.38;;
11681;SDS011;5897;42.640;23.310;2022-10-16T14:02:21;5.70;;;2.38;;
11681;SDS011;5897;42.640;23.310;2022-10-16T14:04:52;3.03;;;1.80;;
11681;SDS011;5897;42.640;23.310;2022-10-16T14:07:21;1.95;;;1.80;;
11681;SDS011;5897;42.640;23.310;2022-10-16T14:09:51;4.38;;;2.22;;
11681;SDS011;5897;42.640;23.310;2022-10-16T14:12:19;3.05;;;2.33;;
11681;SDS011;5897;42.640;23.310;2022-10-16T14:14:47;5.05;;;2.70;;
11681;SDS011;5897;42.640;23.310;2022-10-16T14:17:19;4.15;;;3.20;;
11681;SDS011;5897;42.640;23.310;2022-10-16T14:19:48;7.13;;;3.00;;
11681;SDS011;5897;42.640;23.310;2022-10-16T14:22:28;4.75;;;3.42;;
11681;SDS011;5897;42.640;23.310;2022-10-16T14:24:58;7.68;;;4.93;;
11681;SDS011;5897;42.640;23.310;2022-10-16T14:27:26;6.82;;;5.00;;
11681;SDS011;5897;42.640;23.310;2022-10-16T14:30:12;7.93;;;5.32;;
11681;SDS011;5897;42.640;23.310;2022-10-16T14:32:52;8.02;;;5.40;;
11681;SDS011;5897;42.640;23.310;2022-10-16T14:35:25;9.20;;;6.70;;
11681;SDS011;5897;42.640;23.310;2022-10-16T14:37:53;8.15;;;5.40;;
11681;SDS011;5897;42.640;23.310;2022-10-16T14:40:22;6.43;;;4.30;;
11681;SDS011;5897;42.640;23.310;2022-10-16T14:42:54;5.07;;;3.67;;
11681;SDS011;5897;42.640;23.310;2022-10-16T14:45:21;6.38;;;4.65;;
11681;SDS011;5897;42.640;23.310;2022-10-16T14:47:53;5.45;;;3.88;;
11681;SDS011;5897;42.640;23.310;2022-10-16T14:50:22;4.93;;;3.05;;
11681;SDS011;5897;42.640;23.310;2022-10-16T14:52:49;3.05;;;2.28;;
11681;SDS011;5897;42.640;23.310;2022-10-16T14:55:16;5.90;;;2.70;;
11681;SDS011;5897;42.640;23.310;2022-10-16T14:57:43;4.47;;;2.90;;
11681;SDS011;5897;42.640;23.310;2022-10-16T15:00:16;3.25;;;2.80;;
11681;SDS011;5897;42.640;23.310;2022-10-16T15:02:45;4.75;;;2.70;;
11681;SDS011;5897;42.640;23.310;2022-10-16T15:05:16;5.80;;;2.90;;
11681;SDS011;5897;42.640;23.310;2022-10-16T15:07:45;3.40;;;2.80;;